sensor_id;sensor_type;location;lat;lon;timestamp;temperature;humidity
22436;DHT22;11385;50.822;4.324;2023-02-15T00:00:26;6.00;99.90
22436;DHT22;11385;50.822;4.324;2023-02-15T00:02:53;5.80;99.90
22436;DHT22;11385;50.822;4.324;2023-02-15T00:05:19;5.80;99.90
22436;DHT22;11385;50.822;4.324;2023-02-15T00:07:46;5.80;99.90
22436;DHT22;11385;50.822;4.324;2023-02-15T00:10:12;5.80;99.90
22436;DHT22;11385;50.822;4.324;2023-02-15T00:12:39;5.80;99.90
22436;DHT22;11385;50.822;4.324;2023-02-15T00:15:06;5.70;99.90
22436;DHT22;11385;50.822;4.324;2023-02-15T00:17:33;5.80;99.90
22436;DHT22;11385;50.822;4.324;2023-02-15T00:20:00;5.70;99.90
22436;DHT22;11385;50.822;4.324;2023-02-15T00:22:26;5.60;99.90
22436;DHT22;11385;50.822;4.324;2023-02-15T00:24:53;5.60;99.90
22436;DHT22;11385;50.822;4.324;2023-02-15T00:27:20;5.50;99.90
22436;DHT22;11385;50.822;4.324;2023-02-15T00:29:47;5.50;99.90
22436;DHT22;11385;50.822;4.324;2023-02-15T00:32:14;5.40;99.90
22436;DHT22;11385;50.822;4.324;2023-02-15T00:34:41;5.50;99.90
22436;DHT22;11385;50.822;4.324;2023-02-15T00:37:07;5.50;99.90
22436;DHT22;11385;50.822;4.324;2023-02-15T00:39:34;5.40;99.90
22436;DHT22;11385;50.822;4.324;2023-02-15T00:42:02;5.30;99.90
22436;DHT22;11385;50.822;4.324;2023-02-15T00:44:28;5.30;99.90
22436;DHT22;11385;50.822;4.324;2023-02-15T00:46:55;5.30;99.90
22436;DHT22;11385;50.822;4.324;2023-02-15T00:49:22;5.20;99.90
22436;DHT22;11385;50.822;4.324;2023-02-15T00:51:49;5.30;99.90
22436;DHT22;11385;50.822;4.324;2023-02-15T00:54:16;5.20;99.90
22436;DHT22;11385;50.822;4.324;2023-02-15T00:56:43;5.20;99.90
22436;DHT22;11385;50.822;4.324;2023-02-15T00:59:10;5.10;99.90
22436;DHT22;11385;50.822;4.324;2023-02-15T01:01:37;5.20;99.90
22436;DHT22;11385;50.822;4.324;2023-02-15T01:04:05;5.30;99.90
22436;DHT22;11385;50.822;4.324;2023-02-15T01:06:33;5.30;99.90
22436;DHT22;11385;50.822;4.324;2023-02-15T01:09:00;5.20;99.90
22436;DHT22;11385;50.822;4.324;2023-02-15T01:11:27;5.10;99.90
22436;DHT22;11385;50.822;4.324;2023-02-15T01:13:55;5.00;99.90
22436;DHT22;11385;50.822;4.324;2023-02-15T01:16:25;5.10;99.90
22436;DHT22;11385;50.822;4.324;2023-02-15T01:18:52;5.00;99.90
22436;DHT22;11385;50.822;4.324;2023-02-15T01:21:22;5.10;99.90
22436;DHT22;11385;50.822;4.324;2023-02-15T01:23:50;5.00;99.90
22436;DHT22;11385;50.822;4.324;2023-02-15T01:26:17;5.10;99.90
22436;DHT22;11385;50.822;4.324;2023-02-15T01:28:46;5.20;99.90
22436;DHT22;11385;50.822;4.324;2023-02-15T01:31:15;5.10;99.90
22436;DHT22;11385;50.822;4.324;2023-02-15T01:33:44;5.20;99.90
22436;DHT22;11385;50.822;4.324;2023-02-15T01:36:11;5.10;99.90
22436;DHT22;11385;50.822;4.324;2023-02-15T01:38:38;5.10;99.90
22436;DHT22;11385;50.822;4.324;2023-02-15T01:41:06;5.10;99.90
22436;DHT22;11385;50.822;4.324;2023-02-15T01:43:44;5.10;99.90
22436;DHT22;11385;50.822;4.324;2023-02-15T01:46:13;5.10;99.90
22436;DHT22;11385;50.822;4.324;2023-02-15T01:48:47;5.00;99.90
22436;DHT22;11385;50.822;4.324;2023-02-15T01:51:17;4.90;99.90
22436;DHT22;11385;50.822;4.324;2023-02-15T01:53:49;4.90;99.90
22436;DHT22;11385;50.822;4.324;2023-02-15T01:56:20;4.90;99.90
22436;DHT22;11385;50.822;4.324;2023-02-15T01:58:47;5.00;99.90
22436;DHT22;11385;50.822;4.324;2023-02-15T02:01:16;5.00;99.90
22436;DHT22;11385;50.822;4.324;2023-02-15T02:04:02;4.90;99.90
22436;DHT22;11385;50.822;4.324;2023-02-15T02:06:31;4.90;99.90
22436;DHT22;11385;50.822;4.324;2023-02-15T02:08:59;5.00;99.90
22436;DHT22;11385;50.822;4.324;2023-02-15T02:11:25;4.90;99.90
22436;DHT22;11385;50.822;4.324;2023-02-15T02:13:54;4.90;99.90
22436;DHT22;11385;50.822;4.324;2023-02-15T02:19:22;4.80;99.90
22436;DHT22;11385;50.822;4.324;2023-02-15T02:25:04;4.80;99.90
22436;DHT22;11385;50.822;4.324;2023-02-15T02:27:47;4.70;99.90
22436;DHT22;11385;50.822;4.324;2023-02-15T02:30:37;4.80;99.90
22436;DHT22;11385;50.822;4.324;2023-02-15T02:36:15;4.80;99.90
22436;DHT22;11385;50.822;4.324;2023-02-15T02:38:58;4.80;99.90
22436;DHT22;11385;50.822;4.324;2023-02-15T02:41:32;4.80;99.90
22436;DHT22;11385;50.822;4.324;2023-02-15T02:44:17;4.80;99.90
22436;DHT22;11385;50.822;4.324;2023-02-15T02:46:50;4.90;99.90
22436;DHT22;11385;50.822;4.324;2023-02-15T02:49:16;4.80;99.90
22436;DHT22;11385;50.822;4.324;2023-02-15T02:51:43;4.70;99.90
22436;DHT22;11385;50.822;4.324;2023-02-15T02:54:09;4.70;99.90
22436;DHT22;11385;50.822;4.324;2023-02-15T02:56:40;4.80;99.90
22436;DHT22;11385;50.822;4.324;2023-02-15T02:59:13;4.80;99.90
22436;DHT22;11385;50.822;4.324;2023-02-15T03:01:44;4.70;99.90
22436;DHT22;11385;50.822;4.324;2023-02-15T03:04:15;4.80;99.90
22436;DHT22;11385;50.822;4.324;2023-02-15T03:06:47;4.80;99.90
22436;DHT22;11385;50.822;4.324;2023-02-15T03:09:18;4.70;99.90
22436;DHT22;11385;50.822;4.324;2023-02-15T03:11:44;4.70;99.90
22436;DHT22;11385;50.822;4.324;2023-02-15T03:14:14;4.60;99.90
22436;DHT22;11385;50.822;4.324;2023-02-15T03:16:44;4.60;99.90
22436;DHT22;11385;50.822;4.324;2023-02-15T03:19:17;4.60;99.90
22436;DHT22;11385;50.822;4.324;2023-02-15T03:21:48;4.60;99.90
22436;DHT22;11385;50.822;4.324;2023-02-15T03:24:21;4.60;99.90
22436;DHT22;11385;50.822;4.324;2023-02-15T03:26:50;4.60;99.90
22436;DHT22;11385;50.822;4.324;2023-02-15T03:29:21;4.70;99.90
22436;DHT22;11385;50.822;4.324;2023-02-15T03:31:51;4.50;99.90
22436;DHT22;11385;50.822;4.324;2023-02-15T03:34:19;4.70;99.90
22436;DHT22;11385;50.822;4.324;2023-02-15T03:36:55;4.70;99.90
22436;DHT22;11385;50.822;4.324;2023-02-15T03:39:38;4.60;99.90
22436;DHT22;11385;50.822;4.324;2023-02-15T03:42:13;4.60;99.90
22436;DHT22;11385;50.822;4.324;2023-02-15T03:44:53;4.50;99.90
22436;DHT22;11385;50.822;4.324;2023-02-15T03:47:53;4.40;99.90
22436;DHT22;11385;50.822;4.324;2023-02-15T03:50:08;4.30;99.90
22436;DHT22;11385;50.822;4.324;2023-02-15T03:52:39;4.30;99.90
22436;DHT22;11385;50.822;4.324;2023-02-15T03:55:06;4.30;99.90
22436;DHT22;11385;50.822;4.324;2023-02-15T03:57:35;4.30;99.90
22436;DHT22;11385;50.822;4.324;2023-02-15T04:00:16;4.40;99.90
22436;DHT22;11385;50.822;4.324;2023-02-15T04:03:31;4.50;99.90
22436;DHT22;11385;50.822;4.324;2023-02-15T04:05:57;4.50;99.90
22436;DHT22;11385;50.822;4.324;2023-02-15T04:08:24;4.40;99.90
22436;DHT22;11385;50.822;4.324;2023-02-15T04:10:53;4.30;99.90
22436;DHT22;11385;50.822;4.324;2023-02-15T04:13:24;4.30;99.90
22436;DHT22;11385;50.822;4.324;2023-02-15T04:15:53;4.30;99.90
22436;DHT22;11385;50.822;4.324;2023-02-15T04:18:26;4.20;99.90
22436;DHT22;11385;50.822;4.324;2023-02-15T04:20:58;4.20;99.90
22436;DHT22;11385;50.822;4.324;2023-02-15T04:23:31;4.20;99.90
22436;DHT22;11385;50.822;4.324;2023-02-15T04:26:04;4.10;99.90
22436;DHT22;11385;50.822;4.324;2023-02-15T04:28:31;4.10;99.90
22436;DHT22;11385;50.822;4.324;2023-02-15T04:30:57;4.00;99.90
22436;DHT22;11385;50.822;4.324;2023-02-15T04:33:24;3.80;99.90
22436;DHT22;11385;50.822;4.324;2023-02-15T04:35:51;3.80;99.90
22436;DHT22;11385;50.822;4.324;2023-02-15T04:38:17;3.80;99.90
22436;DHT22;11385;50.822;4.324;2023-02-15T04:40:44;3.80;99.90
22436;DHT22;11385;50.822;4.324;2023-02-15T04:43:10;3.80;99.90
22436;DHT22;11385;50.822;4.324;2023-02-15T04:45:37;3.70;99.90
22436;DHT22;11385;50.822;4.324;2023-02-15T04:48:04;3.60;99.90
22436;DHT22;11385;50.822;4.324;2023-02-15T04:50:30;3.70;99.90
22436;DHT22;11385;50.822;4.324;2023-02-15T04:52:57;3.70;99.90
22436;DHT22;11385;50.822;4.324;2023-02-15T04:55:24;3.80;99.90
22436;DHT22;11385;50.822;4.324;2023-02-15T04:57:52;3.70;99.90
22436;DHT22;11385;50.822;4.324;2023-02-15T05:00:19;3.70;99.90
22436;DHT22;11385;50.822;4.324;2023-02-15T05:02:45;3.70;99.90
22436;DHT22;11385;50.822;4.324;2023-02-15T05:05:12;3.60;99.90
22436;DHT22;11385;50.822;4.324;2023-02-15T05:07:41;3.50;99.90
22436;DHT22;11385;50.822;4.324;2023-02-15T05:10:08;3.50;99.90
22436;DHT22;11385;50.822;4.324;2023-02-15T05:12:34;3.60;99.90
22436;DHT22;11385;50.822;4.324;2023-02-15T05:15:01;3.60;99.90
22436;DHT22;11385;50.822;4.324;2023-02-15T05:17:27;3.50;99.90
22436;DHT22;11385;50.822;4.324;2023-02-15T05:19:54;3.60;99.90
22436;DHT22;11385;50.822;4.324;2023-02-15T05:22:21;3.60;99.90
22436;DHT22;11385;50.822;4.324;2023-02-15T05:24:47;3.50;99.90
22436;DHT22;11385;50.822;4.324;2023-02-15T05:27:19;3.50;99.90
22436;DHT22;11385;50.822;4.324;2023-02-15T05:29:52;3.50;99.90
22436;DHT22;11385;50.822;4.324;2023-02-15T05:32:18;3.50;99.90
22436;DHT22;11385;50.822;4.324;2023-02-15T05:34:45;3.50;99.90
22436;DHT22;11385;50.822;4.324;2023-02-15T05:37:12;3.50;99.90
22436;DHT22;11385;50.822;4.324;2023-02-15T05:39:38;3.50;99.90
22436;DHT22;11385;50.822;4.324;2023-02-15T05:42:06;3.40;99.90
22436;DHT22;11385;50.822;4.324;2023-02-15T05:44:32;3.40;99.90
22436;DHT22;11385;50.822;4.324;2023-02-15T05:46:59;3.40;99.90
22436;DHT22;11385;50.822;4.324;2023-02-15T05:49:25;3.40;99.90
22436;DHT22;11385;50.822;4.324;2023-02-15T05:51:52;3.50;99.90
22436;DHT22;11385;50.822;4.324;2023-02-15T05:54:19;3.50;99.90
22436;DHT22;11385;50.822;4.324;2023-02-15T05:56:45;3.50;99.90
22436;DHT22;11385;50.822;4.324;2023-02-15T05:59:12;3.50;99.90
22436;DHT22;11385;50.822;4.324;2023-02-15T06:01:38;3.50;99.90
22436;DHT22;11385;50.822;4.324;2023-02-15T06:04:05;3.50;99.90
22436;DHT22;11385;50.822;4.324;2023-02-15T06:06:33;3.50;99.90
22436;DHT22;11385;50.822;4.324;2023-02-15T06:09:00;3.50;99.90
22436;DHT22;11385;50.822;4.324;2023-02-15T06:11:27;3.50;99.90
22436;DHT22;11385;50.822;4.324;2023-02-15T06:13:54;3.40;99.90
22436;DHT22;11385;50.822;4.324;2023-02-15T06:16:21;3.30;99.90
22436;DHT22;11385;50.822;4.324;2023-02-15T06:18:47;3.40;99.90
22436;DHT22;11385;50.822;4.324;2023-02-15T06:21:14;3.40;99.90
22436;DHT22;11385;50.822;4.324;2023-02-15T06:23:40;3.40;99.90
22436;DHT22;11385;50.822;4.324;2023-02-15T06:26:07;3.40;99.90
22436;DHT22;11385;50.822;4.324;2023-02-15T06:28:34;3.30;99.90
22436;DHT22;11385;50.822;4.324;2023-02-15T06:31:00;3.40;99.90
22436;DHT22;11385;50.822;4.324;2023-02-15T06:33:27;3.50;99.90
22436;DHT22;11385;50.822;4.324;2023-02-15T06:35:56;3.50;99.90
22436;DHT22;11385;50.822;4.324;2023-02-15T06:38:23;3.50;99.90
22436;DHT22;11385;50.822;4.324;2023-02-15T06:40:50;3.50;99.90
22436;DHT22;11385;50.822;4.324;2023-02-15T06:43:17;3.50;99.90
22436;DHT22;11385;50.822;4.324;2023-02-15T06:45:45;3.50;99.90
22436;DHT22;11385;50.822;4.324;2023-02-15T06:48:11;3.60;99.90
22436;DHT22;11385;50.822;4.324;2023-02-15T06:50:39;3.50;99.90
22436;DHT22;11385;50.822;4.324;2023-02-15T06:53:06;3.50;99.90
22436;DHT22;11385;50.822;4.324;2023-02-15T06:55:33;3.50;99.90
22436;DHT22;11385;50.822;4.324;2023-02-15T06:57:59;3.50;99.90
22436;DHT22;11385;50.822;4.324;2023-02-15T07:00:26;3.50;99.90
22436;DHT22;11385;50.822;4.324;2023-02-15T07:02:54;3.60;99.90
22436;DHT22;11385;50.822;4.324;2023-02-15T07:05:22;3.60;99.90
22436;DHT22;11385;50.822;4.324;2023-02-15T07:07:49;3.70;99.90
22436;DHT22;11385;50.822;4.324;2023-02-15T07:10:16;3.60;99.90
22436;DHT22;11385;50.822;4.324;2023-02-15T07:12:43;3.60;99.90
22436;DHT22;11385;50.822;4.324;2023-02-15T07:15:14;3.50;99.90
22436;DHT22;11385;50.822;4.324;2023-02-15T07:17:42;3.60;99.90
22436;DHT22;11385;50.822;4.324;2023-02-15T07:20:14;3.60;99.90
22436;DHT22;11385;50.822;4.324;2023-02-15T07:22:41;3.50;99.90
22436;DHT22;11385;50.822;4.324;2023-02-15T07:25:11;3.60;99.90
22436;DHT22;11385;50.822;4.324;2023-02-15T07:27:38;3.60;99.90
22436;DHT22;11385;50.822;4.324;2023-02-15T07:30:07;3.70;99.90
22436;DHT22;11385;50.822;4.324;2023-02-15T07:32:34;3.70;99.90
22436;DHT22;11385;50.822;4.324;2023-02-15T07:35:01;3.70;99.90
22436;DHT22;11385;50.822;4.324;2023-02-15T07:37:28;3.80;99.90
22436;DHT22;11385;50.822;4.324;2023-02-15T07:39:54;3.70;99.90
22436;DHT22;11385;50.822;4.324;2023-02-15T07:42:21;3.70;99.90
22436;DHT22;11385;50.822;4.324;2023-02-15T07:44:48;3.80;99.90
22436;DHT22;11385;50.822;4.324;2023-02-15T07:47:14;3.70;99.90
22436;DHT22;11385;50.822;4.324;2023-02-15T07:49:41;3.80;99.90
22436;DHT22;11385;50.822;4.324;2023-02-15T07:52:08;3.80;99.90
22436;DHT22;11385;50.822;4.324;2023-02-15T07:54:34;3.70;99.90
22436;DHT22;11385;50.822;4.324;2023-02-15T07:57:01;3.80;99.90
22436;DHT22;11385;50.822;4.324;2023-02-15T07:59:28;3.90;99.90
22436;DHT22;11385;50.822;4.324;2023-02-15T08:01:55;3.90;99.90
22436;DHT22;11385;50.822;4.324;2023-02-15T08:04:23;3.90;99.90
22436;DHT22;11385;50.822;4.324;2023-02-15T08:06:52;4.00;99.90
22436;DHT22;11385;50.822;4.324;2023-02-15T08:09:21;3.90;99.90
22436;DHT22;11385;50.822;4.324;2023-02-15T08:11:48;3.90;99.90
22436;DHT22;11385;50.822;4.324;2023-02-15T08:14:17;4.10;99.90
22436;DHT22;11385;50.822;4.324;2023-02-15T08:16:47;4.10;99.90
22436;DHT22;11385;50.822;4.324;2023-02-15T08:19:18;4.10;99.90
22436;DHT22;11385;50.822;4.324;2023-02-15T08:21:47;4.30;99.90
22436;DHT22;11385;50.822;4.324;2023-02-15T08:24:16;4.20;99.90
22436;DHT22;11385;50.822;4.324;2023-02-15T08:26:43;4.20;99.90
22436;DHT22;11385;50.822;4.324;2023-02-15T08:29:13;4.40;99.90
22436;DHT22;11385;50.822;4.324;2023-02-15T08:31:40;4.50;99.90
22436;DHT22;11385;50.822;4.324;2023-02-15T08:34:10;4.60;99.90
22436;DHT22;11385;50.822;4.324;2023-02-15T08:36:37;4.60;99.90
22436;DHT22;11385;50.822;4.324;2023-02-15T08:39:05;4.80;99.90
22436;DHT22;11385;50.822;4.324;2023-02-15T08:41:34;4.90;99.90
22436;DHT22;11385;50.822;4.324;2023-02-15T08:44:04;4.90;99.90
22436;DHT22;11385;50.822;4.324;2023-02-15T08:46:34;5.10;99.90
22436;DHT22;11385;50.822;4.324;2023-02-15T08:49:02;5.00;99.90
22436;DHT22;11385;50.822;4.324;2023-02-15T08:51:32;5.10;99.90
22436;DHT22;11385;50.822;4.324;2023-02-15T08:54:02;5.30;99.90
22436;DHT22;11385;50.822;4.324;2023-02-15T08:56:32;5.40;99.90
22436;DHT22;11385;50.822;4.324;2023-02-15T08:59:00;5.40;99.90
22436;DHT22;11385;50.822;4.324;2023-02-15T09:01:29;5.40;99.90
22436;DHT22;11385;50.822;4.324;2023-02-15T09:04:01;5.40;99.90
22436;DHT22;11385;50.822;4.324;2023-02-15T09:06:28;5.50;99.90
22436;DHT22;11385;50.822;4.324;2023-02-15T09:08:55;5.60;99.90
22436;DHT22;11385;50.822;4.324;2023-02-15T09:11:26;5.70;99.90
22436;DHT22;11385;50.822;4.324;2023-02-15T09:13:59;5.90;99.90
22436;DHT22;11385;50.822;4.324;2023-02-15T09:16:28;5.90;99.90
22436;DHT22;11385;50.822;4.324;2023-02-15T09:18:58;5.90;99.90
22436;DHT22;11385;50.822;4.324;2023-02-15T09:21:28;6.10;99.90
22436;DHT22;11385;50.822;4.324;2023-02-15T09:23:59;6.00;99.90
22436;DHT22;11385;50.822;4.324;2023-02-15T09:26:28;6.00;99.90
22436;DHT22;11385;50.822;4.324;2023-02-15T09:28:57;6.10;99.90
22436;DHT22;11385;50.822;4.324;2023-02-15T09:31:28;6.30;99.90
22436;DHT22;11385;50.822;4.324;2023-02-15T09:33:59;6.50;99.90
22436;DHT22;11385;50.822;4.324;2023-02-15T09:36:35;6.60;99.90
22436;DHT22;11385;50.822;4.324;2023-02-15T09:39:07;6.50;99.90
22436;DHT22;11385;50.822;4.324;2023-02-15T09:44:38;6.80;99.90
22436;DHT22;11385;50.822;4.324;2023-02-15T09:47:41;7.10;99.90
22436;DHT22;11385;50.822;4.324;2023-02-15T09:50:20;7.20;99.90
22436;DHT22;11385;50.822;4.324;2023-02-15T09:58:20;7.40;99.90
22436;DHT22;11385;50.822;4.324;2023-02-15T10:00:59;7.60;99.90
22436;DHT22;11385;50.822;4.324;2023-02-15T10:03:57;7.70;99.90
22436;DHT22;11385;50.822;4.324;2023-02-15T10:06:35;7.70;99.90
22436;DHT22;11385;50.822;4.324;2023-02-15T10:09:08;7.90;99.90
22436;DHT22;11385;50.822;4.324;2023-02-15T10:11:41;8.00;99.90
22436;DHT22;11385;50.822;4.324;2023-02-15T10:14:20;8.20;99.90
22436;DHT22;11385;50.822;4.324;2023-02-15T10:17:03;8.40;99.90
22436;DHT22;11385;50.822;4.324;2023-02-15T10:19:39;8.50;99.90
22436;DHT22;11385;50.822;4.324;2023-02-15T10:22:27;8.60;99.90
22436;DHT22;11385;50.822;4.324;2023-02-15T10:25:03;8.70;99.90
22436;DHT22;11385;50.822;4.324;2023-02-15T10:27:30;8.90;99.90
22436;DHT22;11385;50.822;4.324;2023-02-15T10:30:08;9.00;99.90
22436;DHT22;11385;50.822;4.324;2023-02-15T10:32:44;9.10;99.90
22436;DHT22;11385;50.822;4.324;2023-02-15T10:35:20;9.10;99.90
22436;DHT22;11385;50.822;4.324;2023-02-15T10:37:53;9.30;99.90
22436;DHT22;11385;50.822;4.324;2023-02-15T10:40:26;9.30;99.90
22436;DHT22;11385;50.822;4.324;2023-02-15T10:43:31;9.40;99.90
22436;DHT22;11385;50.822;4.324;2023-02-15T10:51:17;9.50;99.90
22436;DHT22;11385;50.822;4.324;2023-02-15T10:54:36;9.50;99.90
22436;DHT22;11385;50.822;4.324;2023-02-15T10:57:11;9.60;99.90
22436;DHT22;11385;50.822;4.324;2023-02-15T10:59:47;9.60;99.90
22436;DHT22;11385;50.822;4.324;2023-02-15T11:02:37;9.60;99.90
22436;DHT22;11385;50.822;4.324;2023-02-15T11:06:14;9.80;99.90
22436;DHT22;11385;50.822;4.324;2023-02-15T11:07:55;10.00;99.90
22436;DHT22;11385;50.822;4.324;2023-02-15T11:10:48;10.00;99.90
22436;DHT22;11385;50.822;4.324;2023-02-15T11:13:18;10.10;99.90
22436;DHT22;11385;50.822;4.324;2023-02-15T11:16:05;10.40;99.90
22436;DHT22;11385;50.822;4.324;2023-02-15T11:18:37;10.60;99.90
22436;DHT22;11385;50.822;4.324;2023-02-15T11:21:08;10.70;99.90
22436;DHT22;11385;50.822;4.324;2023-02-15T11:23:40;10.90;99.90
22436;DHT22;11385;50.822;4.324;2023-02-15T11:26:27;10.80;99.90
22436;DHT22;11385;50.822;4.324;2023-02-15T11:28:58;10.80;99.90
22436;DHT22;11385;50.822;4.324;2023-02-15T11:31:26;10.70;99.90
22436;DHT22;11385;50.822;4.324;2023-02-15T11:33:58;10.90;99.90
22436;DHT22;11385;50.822;4.324;2023-02-15T11:36:31;10.80;99.90
22436;DHT22;11385;50.822;4.324;2023-02-15T11:39:01;10.90;99.90
22436;DHT22;11385;50.822;4.324;2023-02-15T11:41:31;11.00;99.90
22436;DHT22;11385;50.822;4.324;2023-02-15T11:44:05;11.00;99.90
22436;DHT22;11385;50.822;4.324;2023-02-15T11:46:32;11.00;99.90
22436;DHT22;11385;50.822;4.324;2023-02-15T11:48:58;11.20;99.90
22436;DHT22;11385;50.822;4.324;2023-02-15T11:51:25;11.20;99.90
22436;DHT22;11385;50.822;4.324;2023-02-15T11:53:54;11.20;99.90
22436;DHT22;11385;50.822;4.324;2023-02-15T11:56:24;11.30;99.90
22436;DHT22;11385;50.822;4.324;2023-02-15T11:59:00;11.50;99.90
22436;DHT22;11385;50.822;4.324;2023-02-15T12:01:30;11.40;99.90
22436;DHT22;11385;50.822;4.324;2023-02-15T12:04:30;11.50;99.90
22436;DHT22;11385;50.822;4.324;2023-02-15T12:07:03;11.50;99.90
22436;DHT22;11385;50.822;4.324;2023-02-15T12:09:51;11.60;99.90
22436;DHT22;11385;50.822;4.324;2023-02-15T12:12:26;11.60;99.90
22436;DHT22;11385;50.822;4.324;2023-02-15T12:14:56;11.50;99.90
22436;DHT22;11385;50.822;4.324;2023-02-15T12:17:27;11.40;99.90
22436;DHT22;11385;50.822;4.324;2023-02-15T12:19:59;11.70;99.90
22436;DHT22;11385;50.822;4.324;2023-02-15T12:22:29;11.80;99.90
22436;DHT22;11385;50.822;4.324;2023-02-15T12:25:00;11.70;99.90
22436;DHT22;11385;50.822;4.324;2023-02-15T12:27:29;11.70;99.90
22436;DHT22;11385;50.822;4.324;2023-02-15T12:30:05;11.70;99.90
22436;DHT22;11385;50.822;4.324;2023-02-15T12:32:36;11.80;99.90
22436;DHT22;11385;50.822;4.324;2023-02-15T12:35:14;11.80;99.90
22436;DHT22;11385;50.822;4.324;2023-02-15T12:40:23;11.90;99.90
22436;DHT22;11385;50.822;4.324;2023-02-15T12:42:49;12.10;99.90
22436;DHT22;11385;50.822;4.324;2023-02-15T12:45:25;12.20;99.90
22436;DHT22;11385;50.822;4.324;2023-02-15T12:50:31;12.40;99.90
22436;DHT22;11385;50.822;4.324;2023-02-15T12:53:08;12.60;99.90
22436;DHT22;11385;50.822;4.324;2023-02-15T12:55:35;12.60;99.90
22436;DHT22;11385;50.822;4.324;2023-02-15T12:58:08;12.60;99.90
22436;DHT22;11385;50.822;4.324;2023-02-15T13:00:35;12.50;99.90
22436;DHT22;11385;50.822;4.324;2023-02-15T13:03:02;12.50;99.90
22436;DHT22;11385;50.822;4.324;2023-02-15T13:05:34;12.40;99.90
22436;DHT22;11385;50.822;4.324;2023-02-15T13:08:03;12.40;99.90
22436;DHT22;11385;50.822;4.324;2023-02-15T13:10:33;12.50;99.90
22436;DHT22;11385;50.822;4.324;2023-02-15T13:13:01;12.50;99.90
22436;DHT22;11385;50.822;4.324;2023-02-15T13:15:35;12.60;99.90
22436;DHT22;11385;50.822;4.324;2023-02-15T13:18:05;12.60;99.90
22436;DHT22;11385;50.822;4.324;2023-02-15T13:20:34;12.80;99.90
22436;DHT22;11385;50.822;4.324;2023-02-15T13:23:06;12.80;99.90
22436;DHT22;11385;50.822;4.324;2023-02-15T13:25:42;12.90;99.90
22436;DHT22;11385;50.822;4.324;2023-02-15T13:28:13;12.70;99.90
22436;DHT22;11385;50.822;4.324;2023-02-15T13:30:43;12.60;99.90
22436;DHT22;11385;50.822;4.324;2023-02-15T13:35:52;12.90;99.90
22436;DHT22;11385;50.822;4.324;2023-02-15T13:38:32;12.90;99.90
22436;DHT22;11385;50.822;4.324;2023-02-15T13:41:14;12.80;99.90
22436;DHT22;11385;50.822;4.324;2023-02-15T13:43:50;12.80;99.90
22436;DHT22;11385;50.822;4.324;2023-02-15T13:46:23;12.80;99.90
22436;DHT22;11385;50.822;4.324;2023-02-15T13:49:00;12.90;99.90
22436;DHT22;11385;50.822;4.324;2023-02-15T13:51:43;12.90;99.90
22436;DHT22;11385;50.822;4.324;2023-02-15T13:57:09;12.60;99.90
22436;DHT22;11385;50.822;4.324;2023-02-15T13:59:54;12.60;99.90
22436;DHT22;11385;50.822;4.324;2023-02-15T14:02:37;12.80;99.90
22436;DHT22;11385;50.822;4.324;2023-02-15T14:10:54;13.10;99.90
22436;DHT22;11385;50.822;4.324;2023-02-15T14:13:51;12.80;99.90
22436;DHT22;11385;50.822;4.324;2023-02-15T14:21:53;13.00;99.90
22436;DHT22;11385;50.822;4.324;2023-02-15T14:24:33;12.90;99.90
22436;DHT22;11385;50.822;4.324;2023-02-15T14:29:56;12.80;99.90
22436;DHT22;11385;50.822;4.324;2023-02-15T14:32:42;12.70;99.90
22436;DHT22;11385;50.822;4.324;2023-02-15T14:35:16;12.70;99.90
22436;DHT22;11385;50.822;4.324;2023-02-15T14:38:04;12.60;99.90
22436;DHT22;11385;50.822;4.324;2023-02-15T14:40:40;12.70;99.90
22436;DHT22;11385;50.822;4.324;2023-02-15T14:43:24;12.70;99.90
22436;DHT22;11385;50.822;4.324;2023-02-15T14:45:55;12.90;99.90
22436;DHT22;11385;50.822;4.324;2023-02-15T14:48:30;13.10;99.90
22436;DHT22;11385;50.822;4.324;2023-02-15T14:50:57;13.30;99.90
22436;DHT22;11385;50.822;4.324;2023-02-15T14:53:34;13.10;99.90
22436;DHT22;11385;50.822;4.324;2023-02-15T14:56:17;13.10;99.90
22436;DHT22;11385;50.822;4.324;2023-02-15T14:58:58;13.10;99.90
22436;DHT22;11385;50.822;4.324;2023-02-15T15:01:29;13.10;99.90
22436;DHT22;11385;50.822;4.324;2023-02-15T15:04:04;13.00;99.90
22436;DHT22;11385;50.822;4.324;2023-02-15T15:06:33;12.90;99.90
22436;DHT22;11385;50.822;4.324;2023-02-15T15:11:39;13.10;99.90
22436;DHT22;11385;50.822;4.324;2023-02-15T15:14:06;13.20;99.90
22436;DHT22;11385;50.822;4.324;2023-02-15T15:16:50;13.20;99.90
22436;DHT22;11385;50.822;4.324;2023-02-15T15:21:56;13.10;99.90
22436;DHT22;11385;50.822;4.324;2023-02-15T15:25:08;13.10;99.90
22436;DHT22;11385;50.822;4.324;2023-02-15T15:29:58;13.20;99.90
22436;DHT22;11385;50.822;4.324;2023-02-15T15:32:27;13.40;99.90
22436;DHT22;11385;50.822;4.324;2023-02-15T15:35:55;13.40;99.90
22436;DHT22;11385;50.822;4.324;2023-02-15T15:38:10;13.30;99.90
22436;DHT22;11385;50.822;4.324;2023-02-15T15:41:30;13.10;99.90
22436;DHT22;11385;50.822;4.324;2023-02-15T15:46:35;13.00;99.90
22436;DHT22;11385;50.822;4.324;2023-02-15T15:49:07;12.90;99.90
22436;DHT22;11385;50.822;4.324;2023-02-15T15:51:33;13.00;99.90
22436;DHT22;11385;50.822;4.324;2023-02-15T15:54:03;12.90;99.90
22436;DHT22;11385;50.822;4.324;2023-02-15T15:56:34;12.70;99.90
22436;DHT22;11385;50.822;4.324;2023-02-15T15:59:07;12.70;99.90
22436;DHT22;11385;50.822;4.324;2023-02-15T16:01:41;12.70;99.90
22436;DHT22;11385;50.822;4.324;2023-02-15T16:04:12;12.70;99.90
22436;DHT22;11385;50.822;4.324;2023-02-15T16:06:40;12.70;99.90
22436;DHT22;11385;50.822;4.324;2023-02-15T16:09:13;12.50;99.90
22436;DHT22;11385;50.822;4.324;2023-02-15T16:11:41;12.40;99.90
22436;DHT22;11385;50.822;4.324;2023-02-15T16:14:14;12.20;99.90
22436;DHT22;11385;50.822;4.324;2023-02-15T16:16:46;12.10;99.90
22436;DHT22;11385;50.822;4.324;2023-02-15T16:19:18;12.10;99.90
22436;DHT22;11385;50.822;4.324;2023-02-15T16:21:47;12.00;99.90
22436;DHT22;11385;50.822;4.324;2023-02-15T16:24:25;12.00;99.90
22436;DHT22;11385;50.822;4.324;2023-02-15T16:27:03;11.90;99.90
22436;DHT22;11385;50.822;4.324;2023-02-15T16:29:30;11.70;99.90
22436;DHT22;11385;50.822;4.324;2023-02-15T16:32:02;11.70;99.90
22436;DHT22;11385;50.822;4.324;2023-02-15T16:34:30;11.60;99.90
22436;DHT22;11385;50.822;4.324;2023-02-15T16:39:40;11.50;99.90
22436;DHT22;11385;50.822;4.324;2023-02-15T16:42:08;11.50;99.90
22436;DHT22;11385;50.822;4.324;2023-02-15T16:44:35;11.50;99.90
22436;DHT22;11385;50.822;4.324;2023-02-15T16:47:02;11.40;99.90
22436;DHT22;11385;50.822;4.324;2023-02-15T16:49:37;11.20;99.90
22436;DHT22;11385;50.822;4.324;2023-02-15T16:52:02;11.20;99.90
22436;DHT22;11385;50.822;4.324;2023-02-15T16:54:32;11.10;99.90
22436;DHT22;11385;50.822;4.324;2023-02-15T16:57:00;11.20;99.90
22436;DHT22;11385;50.822;4.324;2023-02-15T16:59:31;11.20;99.90
22436;DHT22;11385;50.822;4.324;2023-02-15T17:01:59;11.00;99.90
22436;DHT22;11385;50.822;4.324;2023-02-15T17:04:29;11.00;99.90
22436;DHT22;11385;50.822;4.324;2023-02-15T17:07:06;10.80;99.90